Time;durP1;ratioP1;P1;durP2;ratioP2;P2;SDS_P1;SDS_P2;PMS_P1;PMS_P2;Temp;Humidity;BMP_temperature;BMP_pressure;BME280_temperature;BME280_humidity;BME280_pressure;Samples;Min_cycle;Max_cycle;Signal;HPM_P1;HPM_P2
2021/12/24 00:00:00;;;;;;;32.58;26.30;;;11.40;97.80;;;;;;5016114;28;20096;-65
2021/12/24 00:02:26;;;;;;;31.70;25.45;;;11.40;97.80;;;;;;5016027;28;20428;-66
2021/12/24 00:04:52;;;;;;;29.70;24.63;;;11.40;97.60;;;;;;5016213;28;20026;-69
2021/12/24 00:07:17;;;;;;;38.20;25.38;;;11.40;97.70;;;;;;5015914;28;20334;-66
2021/12/24 00:09:43;;;;;;;32.50;24.63;;;11.40;97.70;;;;;;5016033;28;20095;-66
2021/12/24 00:12:17;;;;;;;33.30;25.45;;;11.50;97.80;;;;;;5015882;28;20033;-65
2021/12/24 00:14:51;;;;;;;33.85;26.58;;;11.50;97.80;;;;;;5015759;28;20045;-65
2021/12/24 00:17:23;;;;;;;33.50;24.90;;;11.50;97.60;;;;;;5015683;28;20029;-64
2021/12/24 00:20:27;;;;;;;31.98;25.52;;;11.50;97.60;;;;;;5015838;28;20095;-66
2021/12/24 00:23:19;;;;;;;29.48;24.60;;;11.50;97.70;;;;;;5015431;28;20026;-65
2021/12/24 00:36:25;;;;;;;29.38;22.85;;;11.50;97.60;;;;;;5015361;28;20028;-64
2021/12/24 00:38:51;;;;;;;29.23;22.48;;;11.50;97.70;;;;;;5015285;28;20033;-65
2021/12/24 00:41:17;;;;;;;24.95;20.95;;;11.50;97.70;;;;;;5015028;28;20392;-64
2021/12/24 00:43:43;;;;;;;24.90;19.98;;;11.60;97.80;;;;;;5015144;28;20076;-64
2021/12/24 00:46:08;;;;;;;25.73;20.95;;;11.60;97.80;;;;;;5015532;28;20026;-66
2021/12/24 00:48:34;;;;;;;25.45;20.15;;;11.60;97.80;;;;;;5015061;28;20419;-66
2021/12/24 00:56:12;;;;;;;26.20;22.17;;;11.70;98.00;;;;;;5015237;28;20072;-65
2021/12/24 00:58:38;;;;;;;26.75;22.27;;;11.70;98.00;;;;;;5015068;28;20033;-65
2021/12/24 01:01:09;;;;;;;27.10;21.05;;;11.70;98.00;;;;;;5014839;28;20029;-66
2021/12/24 01:03:35;;;;;;;27.92;21.65;;;11.70;98.00;;;;;;5014412;28;20034;-66
2021/12/24 01:06:01;;;;;;;33.05;22.65;;;11.70;98.10;;;;;;5014439;28;20036;-64
2021/12/24 01:08:27;;;;;;;30.65;21.92;;;11.70;98.10;;;;;;5014649;28;20022;-67
2021/12/24 01:10:57;;;;;;;24.65;20.23;;;11.60;98.00;;;;;;5014607;28;20072;-66
2021/12/24 01:13:24;;;;;;;25.13;19.80;;;11.60;98.20;;;;;;5014585;28;20344;-64
2021/12/24 01:16:05;;;;;;;29.13;21.83;;;11.60;98.20;;;;;;5014518;28;20026;-66
2021/12/24 01:18:42;;;;;;;26.45;21.38;;;11.60;98.20;;;;;;5014565;28;20029;-66
2021/12/24 01:23:49;;;;;;;28.48;22.20;;;11.60;98.30;;;;;;5014446;28;20040;-65
2021/12/24 01:26:23;;;;;;;29.75;22.55;;;11.50;98.20;;;;;;5014480;28;20018;-66
2021/12/24 01:40:05;;;;;;;26.10;21.20;;;11.50;98.40;;;;;;5014223;28;20057;-67
2021/12/24 01:42:46;;;;;;;25.80;22.05;;;11.50;98.20;;;;;;5014084;28;20109;-65
2021/12/24 01:45:26;;;;;;;26.98;21.13;;;11.50;98.20;;;;;;5014024;28;20088;-64
2021/12/24 01:47:57;;;;;;;26.63;22.00;;;11.60;98.20;;;;;;5013743;28;20022;-66
2021/12/24 01:50:27;;;;;;;24.88;20.40;;;11.60;98.30;;;;;;5014267;28;20388;-66
2021/12/24 01:52:55;;;;;;;27.05;20.33;;;11.60;98.30;;;;;;5013707;28;20119;-65
2021/12/24 01:55:22;;;;;;;25.85;21.35;;;11.60;98.20;;;;;;5013826;28;20033;-66
2021/12/24 01:57:49;;;;;;;25.98;20.45;;;11.70;98.30;;;;;;5013952;28;20041;-65
2021/12/24 02:00:19;;;;;;;23.38;19.10;;;11.70;98.40;;;;;;5013978;28;20384;-65
2021/12/24 02:02:45;;;;;;;25.75;18.67;;;11.70;98.40;;;;;;5013698;28;20448;-66
2021/12/24 02:05:11;;;;;;;23.75;17.83;;;11.70;98.40;;;;;;5013772;28;20018;-66
2021/12/24 02:07:38;;;;;;;24.95;19.33;;;11.70;98.50;;;;;;4995935;28;20364;-65
2021/12/24 02:10:06;;;;;;;25.65;19.08;;;11.70;98.60;;;;;;5013813;28;20026;-65
2021/12/24 02:12:34;;;;;;;22.33;16.50;;;11.70;98.60;;;;;;5013706;28;20037;-65
2021/12/24 02:15:01;;;;;;;22.67;18.95;;;11.70;98.70;;;;;;5013395;28;20096;-64
2021/12/24 02:17:55;;;;;;;20.70;16.83;;;11.70;98.70;;;;;;5013620;28;20113;-65
2021/12/24 02:28:39;;;;;;;20.60;17.58;;;11.80;98.60;;;;;;4976979;28;20035;-66
2021/12/24 02:31:08;;;;;;;21.98;18.27;;;11.80;98.80;;;;;;5013433;28;20105;-65
2021/12/24 02:33:34;;;;;;;21.00;17.77;;;11.80;98.70;;;;;;5013198;28;20394;-69
2021/12/24 02:35:59;;;;;;;25.83;19.05;;;11.80;98.70;;;;;;5013568;28;20448;-65
2021/12/24 02:38:25;;;;;;;24.10;18.90;;;11.80;98.70;;;;;;5013486;28;20030;-64
2021/12/24 02:40:51;;;;;;;18.23;15.50;;;11.80;98.70;;;;;;5013217;28;20030;-64
2021/12/24 02:43:21;;;;;;;19.67;14.55;;;11.80;98.70;;;;;;5013506;28;20048;-64
2021/12/24 02:45:49;;;;;;;19.15;14.40;;;11.90;99.10;;;;;;5012975;28;20061;-65
2021/12/24 02:56:11;;;;;;;18.23;12.68;;;11.90;99.00;;;;;;5013433;28;20422;-67
2021/12/24 02:58:44;;;;;;;16.10;11.32;;;11.90;99.10;;;;;;5012996;28;20104;-65
2021/12/24 03:01:13;;;;;;;18.33;13.00;;;12.00;99.20;;;;;;5013334;28;20033;-66
2021/12/24 03:03:39;;;;;;;17.98;12.70;;;12.00;99.10;;;;;;5013053;28;20093;-67
2021/12/24 03:06:06;;;;;;;18.05;12.55;;;12.00;99.10;;;;;;5013211;28;20549;-65
2021/12/24 03:08:32;;;;;;;15.40;11.82;;;12.00;99.10;;;;;;5013010;28;20072;-67
2021/12/24 03:10:59;;;;;;;17.70;13.82;;;12.00;99.00;;;;;;5012950;28;20034;-65
2021/12/24 03:13:27;;;;;;;19.08;13.07;;;12.00;99.10;;;;;;5012866;28;20066;-67
2021/12/24 03:15:56;;;;;;;17.58;13.88;;;12.00;99.10;;;;;;5012990;28;20113;-66
2021/12/24 03:18:26;;;;;;;22.52;16.30;;;12.00;99.00;;;;;;5012886;28;20054;-66
2021/12/24 03:26:47;;;;;;;21.25;17.77;;;11.80;99.00;;;;;;4971749;28;20027;-66
2021/12/24 03:29:14;;;;;;;25.25;18.35;;;11.70;99.10;;;;;;5000877;28;20052;-64
2021/12/24 03:31:41;;;;;;;22.85;18.25;;;11.80;99.10;;;;;;5016774;28;20025;-65
2021/12/24 03:34:16;;;;;;;22.08;16.98;;;11.80;99.20;;;;;;5016515;28;20491;-68
2021/12/24 03:36:42;;;;;;;23.52;18.45;;;11.80;99.10;;;;;;5016582;28;20018;-66
2021/12/24 03:39:10;;;;;;;23.52;18.58;;;11.80;99.00;;;;;;5016567;28;20171;-67
2021/12/24 03:41:35;;;;;;;23.48;18.23;;;11.70;98.90;;;;;;5016406;28;20026;-65
2021/12/24 03:44:01;;;;;;;22.20;17.98;;;11.70;99.10;;;;;;5016401;28;20467;-65
2021/12/24 03:46:36;;;;;;;21.83;18.67;;;11.80;99.00;;;;;;5016477;28;20026;-65
2021/12/24 03:49:07;;;;;;;23.33;18.73;;;11.70;98.90;;;;;;5016071;28;20049;-66
2021/12/24 03:51:58;;;;;;;22.73;18.35;;;11.70;99.00;;;;;;5016423;28;20025;-64
2021/12/24 03:57:08;;;;;;;;;;;11.60;98.90;;;;;;5017459;28;20032;-67
2021/12/24 03:59:34;;;;;;;21.38;17.67;;;11.60;99.20;;;;;;5016218;28;20007;-65
2021/12/24 04:02:00;;;;;;;20.80;17.90;;;11.60;99.10;;;;;;5015853;28;20466;-65
2021/12/24 04:04:26;;;;;;;20.80;16.58;;;11.60;99.10;;;;;;5015957;28;20030;-65
2021/12/24 04:06:52;;;;;;;21.17;17.60;;;11.60;99.10;;;;;;5015763;28;20076;-65
2021/12/24 04:09:18;;;;;;;18.63;16.63;;;11.70;99.10;;;;;;5015828;28;20403;-66
2021/12/24 04:11:43;;;;;;;21.75;17.42;;;11.60;99.20;;;;;;5015887;28;20411;-66
2021/12/24 04:14:09;;;;;;;23.30;16.63;;;11.60;99.20;;;;;;5016036;28;20038;-65
2021/12/24 04:16:35;;;;;;;21.23;16.10;;;11.70;99.20;;;;;;5015556;28;20022;-64
2021/12/24 04:27:14;;;;;;;;;;;11.80;99.10;;;;;;5016461;28;20088;-68
2021/12/24 04:29:39;;;;;;;27.80;16.80;;;11.80;99.10;;;;;;5015591;28;20303;-65
2021/12/24 04:32:33;;;;;;;22.13;16.83;;;11.80;98.90;;;;;;5015768;28;20038;-64
2021/12/24 04:35:03;;;;;;;18.80;16.10;;;11.80;98.90;;;;;;5014605;28;20041;-65
2021/12/24 05:04:16;;;;;;;21.38;15.05;;;11.90;99.10;;;;;;5014767;28;20053;-64
2021/12/24 05:06:51;;;;;;;18.90;14.85;;;11.90;99.20;;;;;;5014852;28;20034;-65
2021/12/24 05:09:23;;;;;;;19.60;14.07;;;11.90;99.20;;;;;;5014580;28;20026;-64
2021/12/24 05:11:49;;;;;;;20.15;14.50;;;11.90;99.20;;;;;;5014797;28;20026;-65
2021/12/24 05:14:15;;;;;;;18.23;13.60;;;12.00;99.20;;;;;;5014381;28;20113;-65
2021/12/24 05:16:50;;;;;;;17.13;12.73;;;12.00;99.30;;;;;;5014612;28;20050;-66
2021/12/24 05:21:49;;;;;;;14.98;10.63;;;12.00;99.40;;;;;;5014891;28;20033;-66
2021/12/24 05:24:19;;;;;;;15.85;11.00;;;12.10;99.40;;;;;;5014576;28;20022;-67
2021/12/24 05:26:48;;;;;;;13.82;10.02;;;12.10;99.50;;;;;;5014224;28;20133;-66
2021/12/24 05:29:15;;;;;;;15.77;11.50;;;12.10;99.60;;;;;;5014733;28;20495;-75
2021/12/24 05:31:41;;;;;;;14.52;10.40;;;12.10;99.70;;;;;;5014330;28;20030;-71
2021/12/24 05:34:07;;;;;;;12.55;9.68;;;12.10;99.80;;;;;;5014459;28;20041;-73
2021/12/24 05:36:32;;;;;;;12.23;8.70;;;12.10;99.90;;;;;;5014481;28;20029;-72
2021/12/24 05:38:59;;;;;;;15.00;8.27;;;12.20;99.90;;;;;;5014624;28;20029;-72
2021/12/24 05:41:26;;;;;;;12.57;7.97;;;12.20;99.90;;;;;;5014434;28;20125;-71
2021/12/24 05:43:51;;;;;;;11.93;7.30;;;12.20;99.90;;;;;;5014416;28;20113;-74
2021/12/24 05:46:17;;;;;;;11.80;8.07;;;12.20;99.90;;;;;;5014343;28;20093;-73
2021/12/24 05:48:43;;;;;;;14.38;8.95;;;12.30;99.90;;;;;;4996484;28;20496;-73
2021/12/24 05:51:10;;;;;;;10.68;6.88;;;12.30;99.90;;;;;;5013596;28;20033;-69
2021/12/24 05:53:37;;;;;;;12.23;6.82;;;12.30;99.90;;;;;;5013938;28;20107;-72
2021/12/24 05:56:04;;;;;;;16.40;10.07;;;12.30;99.90;;;;;;5014191;28;20025;-73
2021/12/24 05:58:30;;;;;;;13.68;7.03;;;12.30;99.90;;;;;;5014161;28;20467;-70
2021/12/24 06:00:56;;;;;;;13.48;8.27;;;12.30;99.90;;;;;;5013971;28;20037;-70
2021/12/24 06:03:22;;;;;;;12.10;6.90;;;12.40;99.90;;;;;;5013823;28;20029;-74
2021/12/24 06:05:47;;;;;;;12.02;6.82;;;12.40;99.90;;;;;;5013903;28;20357;-73
2021/12/24 06:08:13;;;;;;;8.13;5.40;;;12.40;99.90;;;;;;5013869;28;20075;-74
2021/12/24 06:10:41;;;;;;;11.13;6.38;;;12.40;99.90;;;;;;5014206;28;20148;-74
2021/12/24 06:13:07;;;;;;;8.35;5.38;;;12.50;99.90;;;;;;5014106;28;20034;-75
2021/12/24 06:15:41;;;;;;;10.65;5.40;;;12.50;99.90;;;;;;5013919;28;20037;-74
2021/12/24 06:18:12;;;;;;;12.65;5.25;;;12.50;99.90;;;;;;4995742;28;20026;-70
2021/12/24 06:20:40;;;;;;;10.07;4.65;;;12.50;99.90;;;;;;5013477;28;20468;-70
2021/12/24 06:23:08;;;;;;;9.20;4.88;;;12.50;99.90;;;;;;5013392;28;20034;-72
2021/12/24 06:25:34;;;;;;;8.40;4.47;;;12.50;99.90;;;;;;5013991;28;20029;-71
2021/12/24 06:28:00;;;;;;;9.80;4.78;;;12.50;99.90;;;;;;5013500;28;20029;-73
2021/12/24 06:30:29;;;;;;;14.07;5.65;;;12.60;99.90;;;;;;5013549;28;20037;-73
2021/12/24 06:32:55;;;;;;;8.85;4.40;;;12.60;99.90;;;;;;5013319;28;20049;-71
2021/12/24 06:35:21;;;;;;;10.68;5.07;;;12.60;99.90;;;;;;5013250;28;20022;-72
2021/12/24 06:37:47;;;;;;;9.60;4.78;;;12.70;99.90;;;;;;5013298;28;20030;-65
2021/12/24 06:40:13;;;;;;;11.80;4.50;;;12.70;99.90;;;;;;5013300;28;20453;-64
2021/12/24 06:42:38;;;;;;;8.82;4.50;;;12.70;99.90;;;;;;5013093;28;20026;-65
2021/12/24 06:45:04;;;;;;;7.90;4.28;;;12.70;99.90;;;;;;5013445;28;20065;-67
2021/12/24 06:47:30;;;;;;;8.43;3.90;;;12.70;99.90;;;;;;5013385;28;20060;-66
2021/12/24 06:49:56;;;;;;;8.05;4.13;;;12.80;99.90;;;;;;4995349;28;20097;-66
2021/12/24 06:52:22;;;;;;;8.80;4.35;;;12.80;99.90;;;;;;5013213;28;20029;-66
2021/12/24 06:54:47;;;;;;;15.23;4.63;;;12.80;99.90;;;;;;5013161;28;20080;-66
2021/12/24 06:57:17;;;;;;;11.63;4.15;;;12.80;99.90;;;;;;5013099;28;20026;-65
2021/12/24 06:59:43;;;;;;;10.30;4.78;;;12.90;99.90;;;;;;5012885;28;20034;-64
2021/12/24 07:02:09;;;;;;;8.25;4.45;;;12.90;99.90;;;;;;5014672;28;20452;-65
2021/12/24 07:04:35;;;;;;;10.32;4.82;;;12.90;99.90;;;;;;5017086;28;20030;-67
2021/12/24 07:07:01;;;;;;;6.72;3.88;;;12.90;99.90;;;;;;5017912;28;20032;-66
2021/12/24 07:09:26;;;;;;;10.02;4.25;;;12.90;99.90;;;;;;5017742;28;20431;-64
2021/12/24 07:11:53;;;;;;;8.90;4.20;;;12.90;99.90;;;;;;5017118;28;20032;-65
2021/12/24 07:14:18;;;;;;;8.60;3.83;;;12.90;99.90;;;;;;5017088;28;20146;-66
2021/12/24 07:16:44;;;;;;;8.75;4.32;;;12.90;99.90;;;;;;5016966;28;20109;-66
2021/12/24 07:19:10;;;;;;;6.82;4.57;;;12.90;99.90;;;;;;5016767;28;20372;-66
2021/12/24 07:21:36;;;;;;;9.02;4.53;;;13.00;99.90;;;;;;5016973;28;20037;-67
2021/12/24 07:24:03;;;;;;;8.95;4.30;;;13.00;99.90;;;;;;5017030;28;20120;-64
2021/12/24 07:26:28;;;;;;;10.25;4.10;;;13.00;99.90;;;;;;5016526;28;20121;-66
2021/12/24 07:28:54;;;;;;;11.57;4.95;;;13.00;99.90;;;;;;5016358;28;20029;-65
2021/12/24 07:31:20;;;;;;;9.80;4.72;;;13.00;99.90;;;;;;5016419;28;20026;-66
2021/12/24 07:33:46;;;;;;;12.27;4.40;;;13.00;99.90;;;;;;5016052;28;20180;-66
2021/12/24 07:36:13;;;;;;;9.93;4.30;;;13.10;99.90;;;;;;5016350;28;20141;-66
2021/12/24 07:38:39;;;;;;;9.07;4.03;;;13.10;99.90;;;;;;5016047;28;20029;-65
2021/12/24 07:41:05;;;;;;;7.82;4.40;;;13.10;99.90;;;;;;5016240;28;20033;-66
2021/12/24 07:43:31;;;;;;;8.85;4.20;;;13.20;99.90;;;;;;5016030;28;20545;-71
2021/12/24 07:45:57;;;;;;;8.88;4.40;;;13.20;99.90;;;;;;5016174;28;20022;-67
2021/12/24 07:48:31;;;;;;;9.15;4.40;;;13.20;99.90;;;;;;5015776;28;20079;-65
2021/12/24 07:53:25;;;;;;;13.95;4.88;;;13.30;99.90;;;;;;5015730;28;20038;-68
2021/12/24 07:55:55;;;;;;;9.73;4.53;;;13.30;99.90;;;;;;5015730;28;20097;-67
2021/12/24 07:58:21;;;;;;;9.60;4.80;;;13.30;99.90;;;;;;5015829;28;20022;-68
2021/12/24 08:00:47;;;;;;;10.20;4.85;;;13.30;99.90;;;;;;5015904;28;20179;-68
2021/12/24 08:03:13;;;;;;;8.68;5.18;;;13.40;99.90;;;;;;5016244;28;20166;-66
2021/12/24 08:05:41;;;;;;;9.95;4.63;;;13.40;99.90;;;;;;5015835;28;20022;-66
2021/12/24 08:08:09;;;;;;;9.77;4.43;;;13.40;99.90;;;;;;5015336;28;20029;-67
2021/12/24 08:10:37;;;;;;;13.15;5.18;;;13.40;99.90;;;;;;5015610;28;20106;-67
2021/12/24 08:13:04;;;;;;;12.82;4.78;;;13.50;99.90;;;;;;4998080;28;20037;-73
2021/12/24 08:15:31;;;;;;;16.17;7.25;;;13.50;99.90;;;;;;5015234;28;20026;-69
2021/12/24 08:17:57;;;;;;;12.50;8.23;;;13.50;99.90;;;;;;4998021;28;20357;-71
2021/12/24 08:20:25;;;;;;;14.93;6.63;;;13.50;99.90;;;;;;5015522;28;20034;-69
2021/12/24 08:22:53;;;;;;;10.15;5.53;;;13.50;99.90;;;;;;5015762;28;20423;-74
2021/12/24 08:25:20;;;;;;;14.13;5.10;;;13.50;99.90;;;;;;5015768;28;20018;-70
2021/12/24 08:27:46;;;;;;;10.52;5.03;;;13.50;99.90;;;;;;5015446;28;20121;-70
2021/12/24 08:30:12;;;;;;;10.70;4.90;;;13.50;99.90;;;;;;5015285;28;20486;-65
2021/12/24 08:32:40;;;;;;;12.25;6.53;;;13.50;99.90;;;;;;5015117;28;20033;-66
2021/12/24 08:35:09;;;;;;;12.45;6.00;;;13.50;99.90;;;;;;5015202;28;20535;-66
2021/12/24 08:37:35;;;;;;;12.65;4.90;;;13.60;99.90;;;;;;5015173;28;20079;-66
2021/12/24 08:40:01;;;;;;;14.60;5.70;;;13.60;99.90;;;;;;5015228;28;20033;-68
2021/12/24 08:42:26;;;;;;;11.77;5.88;;;13.60;99.90;;;;;;5014631;28;20029;-66
2021/12/24 08:44:52;;;;;;;10.75;5.10;;;13.60;99.90;;;;;;5014788;28;20391;-67
2021/12/24 08:47:18;;;;;;;10.70;5.65;;;13.60;99.90;;;;;;5014375;28;20080;-67
2021/12/24 08:49:44;;;;;;;14.95;6.65;;;13.60;99.90;;;;;;5014424;28;20069;-67
2021/12/24 08:52:10;;;;;;;13.20;7.20;;;13.70;99.90;;;;;;5014398;28;20018;-66
2021/12/24 08:54:36;;;;;;;10.55;6.38;;;13.70;99.90;;;;;;5014257;28;20597;-66
2021/12/24 08:57:03;;;;;;;10.98;5.82;;;13.70;99.90;;;;;;5014369;28;20026;-69
2021/12/24 08:59:29;;;;;;;11.10;6.85;;;13.80;99.90;;;;;;5014332;28;20034;-64
2021/12/24 09:01:58;;;;;;;12.02;6.20;;;13.80;99.90;;;;;;5014505;28;20104;-66
2021/12/24 09:04:24;;;;;;;12.45;5.85;;;13.90;99.90;;;;;;4996408;28;20037;-67
2021/12/24 09:06:50;;;;;;;10.60;5.63;;;13.90;99.90;;;;;;5014163;28;20022;-69
2021/12/24 09:09:15;;;;;;;11.73;5.63;;;13.90;99.90;;;;;;5013729;28;20026;-66
2021/12/24 09:11:44;;;;;;;11.13;5.50;;;14.00;99.90;;;;;;5013802;28;20336;-67
2021/12/24 09:14:10;;;;;;;14.77;6.78;;;14.00;99.90;;;;;;5013868;28;20030;-74
2021/12/24 09:16:37;;;;;;;13.57;6.78;;;14.00;99.90;;;;;;5013978;28;20480;-68
2021/12/24 09:19:08;;;;;;;13.15;5.68;;;14.00;99.90;;;;;;5013953;28;20495;-68
2021/12/24 09:21:35;;;;;;;18.90;9.40;;;14.00;99.90;;;;;;5014009;28;20025;-70
2021/12/24 09:24:05;;;;;;;17.95;8.05;;;14.10;99.90;;;;;;5013996;28;20024;-74
2021/12/24 09:26:32;;;;;;;10.98;5.78;;;14.00;99.90;;;;;;5013256;28;20081;-66
2021/12/24 09:29:00;;;;;;;17.65;6.57;;;14.00;99.90;;;;;;5013670;28;20041;-68
2021/12/24 09:31:26;;;;;;;14.60;6.10;;;14.10;99.90;;;;;;5013673;28;20420;-67
2021/12/24 09:33:53;;;;;;;15.57;6.78;;;14.10;99.90;;;;;;5013847;28;20412;-66
2021/12/24 09:36:24;;;;;;;13.63;7.30;;;14.10;99.90;;;;;;5014083;28;20046;-71
2021/12/24 09:38:58;;;;;;;13.05;6.50;;;14.10;99.90;;;;;;4996260;28;20148;-70
2021/12/24 09:41:24;;;;;;;;;;;14.10;99.90;;;;;;5014301;28;20033;-71
2021/12/24 09:43:51;;;;;;;10.10;5.43;;;14.20;99.90;;;;;;5014070;28;19905;-73
2021/12/24 09:46:17;;;;;;;13.43;5.70;;;14.10;99.90;;;;;;5013804;28;20018;-66
2021/12/24 09:48:43;;;;;;;13.40;6.32;;;14.20;99.90;;;;;;5013456;28;20045;-70
2021/12/24 09:51:09;;;;;;;12.52;5.93;;;14.20;99.90;;;;;;5013790;28;20419;-68
2021/12/24 09:53:36;;;;;;;18.13;6.32;;;14.20;99.90;;;;;;5013212;28;20480;-68
2021/12/24 09:56:04;;;;;;;12.05;6.65;;;14.20;99.90;;;;;;5013080;28;20125;-67
2021/12/24 09:58:30;;;;;;;14.98;6.57;;;14.20;99.90;;;;;;5013201;28;20040;-67
2021/12/24 10:00:56;;;;;;;15.68;6.43;;;14.20;99.90;;;;;;5013147;28;20098;-67
2021/12/24 10:03:37;;;;;;;12.82;6.10;;;14.20;99.90;;;;;;5012977;28;20486;-68
2021/12/24 10:06:05;;;;;;;14.90;7.15;;;14.20;99.90;;;;;;5012972;28;20105;-70
2021/12/24 10:08:31;;;;;;;12.48;6.10;;;14.20;99.90;;;;;;5012975;28;20034;-69
2021/12/24 10:11:05;;;;;;;11.10;6.30;;;14.20;99.90;;;;;;5013523;28;20076;-65
2021/12/24 10:13:31;;;;;;;14.63;6.78;;;14.20;99.90;;;;;;5014386;28;20113;-68
2021/12/24 10:16:18;;;;;;;17.05;7.68;;;14.20;99.90;;;;;;5014248;28;20062;-69
2021/12/24 10:18:52;;;;;;;16.52;6.43;;;14.20;99.90;;;;;;5013028;28;20109;-67
2021/12/24 10:21:24;;;;;;;13.10;6.07;;;14.30;99.90;;;;;;5013261;28;20070;-68
2021/12/24 10:24:00;;;;;;;13.98;6.30;;;14.30;99.90;;;;;;4995103;28;20095;-65
2021/12/24 10:26:33;;;;;;;16.10;6.13;;;14.30;99.90;;;;;;5012931;28;20483;-68
2021/12/24 10:29:10;;;;;;;14.88;6.00;;;14.30;99.90;;;;;;5012555;28;20049;-67
2021/12/24 10:31:50;;;;;;;11.02;5.75;;;14.30;99.90;;;;;;5013172;28;20048;-68
2021/12/24 10:34:29;;;;;;;16.15;7.60;;;14.20;99.90;;;;;;4995776;28;20427;-65
2021/12/24 10:36:57;;;;;;;14.57;6.38;;;14.20;99.90;;;;;;5012591;28;20125;-69
2021/12/24 10:39:33;;;;;;;14.95;6.93;;;14.20;99.90;;;;;;5012587;28;20014;-67
2021/12/24 10:42:01;;;;;;;13.35;7.43;;;14.20;99.90;;;;;;4996486;28;20352;-68
2021/12/24 10:44:30;;;;;;;11.93;7.07;;;14.20;99.90;;;;;;5012838;28;20026;-73
2021/12/24 10:47:09;;;;;;;12.85;7.22;;;14.20;99.90;;;;;;5012676;28;20590;-65
2021/12/24 10:55:21;;;;;;;17.55;7.03;;;14.20;99.90;;;;;;5009047;28;20030;-68
2021/12/24 10:57:51;;;;;;;15.40;7.40;;;14.20;99.90;;;;;;5012272;28;20021;-70
2021/12/24 11:00:31;;;;;;;11.85;6.88;;;14.20;99.90;;;;;;5012936;28;20120;-72
2021/12/24 11:03:04;;;;;;;14.00;7.95;;;14.20;99.90;;;;;;5011950;28;20037;-72
2021/12/24 11:05:31;;;;;;;13.82;8.05;;;14.20;99.90;;;;;;5012465;28;20352;-72
2021/12/24 11:08:00;;;;;;;16.40;7.78;;;14.20;99.90;;;;;;5012589;28;20101;-72
2021/12/24 11:10:31;;;;;;;15.00;8.05;;;14.10;99.90;;;;;;5012844;28;20021;-73
2021/12/24 11:13:07;;;;;;;18.52;8.40;;;14.10;99.90;;;;;;5012524;28;20037;-71
2021/12/24 11:15:34;;;;;;;15.30;7.90;;;14.20;99.90;;;;;;5012846;28;20160;-70
2021/12/24 11:18:04;;;;;;;16.42;9.02;;;14.10;99.90;;;;;;5012548;28;20030;-75
2021/12/24 11:20:31;;;;;;;15.57;8.30;;;14.10;99.90;;;;;;5012639;28;20057;-73
2021/12/24 11:23:01;;;;;;;16.98;9.35;;;14.10;99.90;;;;;;4994750;28;20037;-72
2021/12/24 11:25:33;;;;;;;15.98;9.48;;;14.10;99.90;;;;;;5012045;28;20022;-66
2021/12/24 11:27:59;;;;;;;16.00;8.95;;;14.10;99.90;;;;;;5012298;28;20072;-72
2021/12/24 11:30:26;;;;;;;20.52;9.23;;;14.00;99.90;;;;;;5012429;28;20100;-70
2021/12/24 11:32:53;;;;;;;13.48;8.48;;;14.00;99.90;;;;;;5012282;28;20038;-71
2021/12/24 11:35:20;;;;;;;17.80;9.18;;;14.00;99.90;;;;;;5012339;28;20046;-68
2021/12/24 11:37:48;;;;;;;17.80;9.23;;;14.00;99.90;;;;;;5012140;28;20030;-68
2021/12/24 11:40:18;;;;;;;18.95;9.15;;;14.00;99.90;;;;;;4994617;28;20391;-67
2021/12/24 11:42:49;;;;;;;14.90;8.75;;;14.00;99.90;;;;;;5011767;28;20040;-67
2021/12/24 11:45:15;;;;;;;17.52;9.80;;;14.10;99.90;;;;;;4994283;28;20029;-66
2021/12/24 11:50:19;;;;;;;15.95;9.70;;;14.10;99.90;;;;;;5034526;28;20049;-78
2021/12/24 11:52:48;;;;;;;14.65;9.55;;;14.20;99.90;;;;;;5035861;28;20021;-82
2021/12/24 11:55:14;;;;;;;16.17;9.48;;;14.10;99.90;;;;;;5017366;28;20506;-81
2021/12/24 11:57:59;;;;;;;20.90;10.13;;;14.10;99.90;;;;;;5035708;28;20489;-78
2021/12/24 12:00:30;;;;;;;18.35;9.35;;;14.20;99.90;;;;;;5035703;28;20406;-80
2021/12/24 12:02:56;;;;;;;18.48;10.07;;;14.20;99.90;;;;;;5035878;28;20104;-79
2021/12/24 12:05:28;;;;;;;18.25;10.10;;;14.20;99.90;;;;;;5036096;28;20030;-82
2021/12/24 12:08:26;;;;;;;15.77;9.82;;;14.20;99.90;;;;;;5035341;28;20025;-80
2021/12/24 12:11:12;;;;;;;19.75;10.43;;;14.20;99.90;;;;;;5035103;28;20131;-79
2021/12/24 12:13:48;;;;;;;19.75;9.98;;;14.20;99.90;;;;;;5035369;28;20216;-82
2021/12/24 12:16:19;;;;;;;23.42;16.33;;;14.20;99.90;;;;;;5035540;28;20029;-81
2021/12/24 12:18:49;;;;;;;26.52;16.67;;;14.20;99.90;;;;;;5017431;28;20470;-81
2021/12/24 12:21:34;;;;;;;19.08;10.60;;;14.30;99.90;;;;;;5035958;28;20029;-81
2021/12/24 12:26:38;;;;;;;17.63;10.35;;;14.40;99.90;;;;;;5035395;28;20379;-80
2021/12/24 12:29:25;;;;;;;15.93;10.02;;;14.40;99.90;;;;;;5034675;28;20033;-80
2021/12/24 12:32:03;;;;;;;21.25;11.27;;;14.40;99.90;;;;;;5016730;28;20025;-80
2021/12/24 12:34:41;;;;;;;20.65;10.18;;;14.40;99.90;;;;;;5034664;28;20048;-76
2021/12/24 12:37:12;;;;;;;18.38;10.77;;;14.40;99.90;;;;;;5035181;28;20377;-76
2021/12/24 12:39:39;;;;;;;18.67;10.38;;;14.40;99.90;;;;;;5034776;28;20032;-81
2021/12/24 12:42:05;;;;;;;19.10;10.88;;;14.50;99.90;;;;;;5034150;28;20029;-80
2021/12/24 12:44:33;;;;;;;20.15;11.05;;;14.50;99.90;;;;;;5034285;28;20021;-80
2021/12/24 12:47:36;;;;;;;21.42;11.23;;;14.40;99.90;;;;;;5034606;28;20033;-78
2021/12/24 12:50:15;;;;;;;21.85;11.15;;;14.40;99.90;;;;;;5022798;28;20136;-80
2021/12/24 12:52:41;;;;;;;17.35;10.60;;;14.40;99.90;;;;;;5034636;28;20029;-82
2021/12/24 12:55:30;;;;;;;21.17;11.60;;;14.40;99.90;;;;;;5034329;28;20390;-75
2021/12/24 12:58:19;;;;;;;17.70;10.80;;;14.40;99.90;;;;;;5034203;28;20026;-78
2021/12/24 13:01:13;;;;;;;20.80;10.77;;;14.40;99.90;;;;;;5034091;28;20071;-80
2021/12/24 13:04:10;;;;;;;20.50;11.20;;;14.40;99.90;;;;;;5034412;28;20379;-75
2021/12/24 13:06:41;;;;;;;20.15;11.48;;;14.40;99.90;;;;;;5029847;28;20127;-79
2021/12/24 13:09:16;;;;;;;16.75;10.65;;;14.40;99.90;;;;;;5033640;28;20120;-76
2021/12/24 13:11:47;;;;;;;17.90;11.00;;;14.40;99.90;;;;;;5034235;28;20026;-76
2021/12/24 13:14:15;;;;;;;21.50;11.02;;;14.40;99.90;;;;;;5034183;28;20497;-81
2021/12/24 13:17:05;;;;;;;18.92;10.43;;;14.40;99.90;;;;;;5034202;28;20444;-79
2021/12/24 13:20:00;;;;;;;21.55;11.75;;;14.40;99.90;;;;;;5034086;28;20151;-81
2021/12/24 13:24:53;;;;;;;17.00;9.23;;;14.40;99.90;;;;;;5035552;28;20037;-76
2021/12/24 13:27:24;;;;;;;21.83;11.50;;;14.50;99.90;;;;;;5034950;28;20018;-80
2021/12/24 13:30:08;;;;;;;19.05;11.63;;;14.50;99.90;;;;;;5034643;28;20037;-82
2021/12/24 13:33:07;;;;;;;21.27;11.05;;;14.50;99.90;;;;;;5016004;28;20042;-79
2021/12/24 13:35:42;;;;;;;20.30;11.38;;;14.60;99.90;;;;;;5033627;28;20420;-80
2021/12/24 13:38:27;;;;;;;20.55;11.55;;;14.60;99.90;;;;;;5033259;28;20030;-80
2021/12/24 13:40:54;;;;;;;21.63;11.50;;;14.60;99.90;;;;;;5018831;28;20101;-80
2021/12/24 13:43:21;;;;;;;27.17;12.38;;;14.60;99.90;;;;;;5033769;28;20033;-81
2021/12/24 13:45:51;;;;;;;20.00;12.35;;;14.60;99.90;;;;;;5031595;28;20037;-78
2021/12/24 13:48:25;;;;;;;25.67;11.60;;;14.60;99.90;;;;;;5032831;28;20046;-81
2021/12/24 13:56:40;;;;;;;23.88;11.77;;;14.60;99.90;;;;;;5033874;28;20080;-77
2021/12/24 13:59:07;;;;;;;21.33;12.63;;;14.50;99.90;;;;;;5015490;28;20026;-74
2021/12/24 14:01:33;;;;;;;31.50;12.73;;;14.50;99.90;;;;;;5033887;28;20082;-77
2021/12/24 14:04:01;;;;;;;22.02;13.00;;;14.50;99.90;;;;;;5032795;28;20414;-75
2021/12/24 14:06:42;;;;;;;20.77;11.98;;;14.50;99.90;;;;;;5014702;28;20030;-68
2021/12/24 14:09:20;;;;;;;21.00;11.93;;;14.60;99.90;;;;;;5032087;28;20324;-71
2021/12/24 14:11:48;;;;;;;17.67;11.63;;;14.50;99.90;;;;;;5030615;28;20375;-72
2021/12/24 14:14:24;;;;;;;27.23;13.20;;;14.50;99.90;;;;;;5010215;28;20041;-71
2021/12/24 14:19:36;;;;;;;25.60;12.52;;;14.50;99.90;;;;;;5032830;28;20033;-68
2021/12/24 14:22:14;;;;;;;24.02;12.93;;;14.50;99.90;;;;;;5032571;28;20022;-72
2021/12/24 14:25:02;;;;;;;25.48;14.05;;;14.50;99.90;;;;;;5015133;28;20037;-69
2021/12/24 14:27:30;;;;;;;24.73;13.57;;;14.50;99.90;;;;;;5032621;28;20379;-69
2021/12/24 14:30:18;;;;;;;20.20;11.75;;;14.50;99.90;;;;;;5031669;28;20124;-72
2021/12/24 14:32:47;;;;;;;33.45;20.58;;;14.50;99.90;;;;;;5032424;28;20082;-67
2021/12/24 14:35:20;;;;;;;25.15;13.57;;;14.50;99.90;;;;;;5032709;28;20049;-66
2021/12/24 14:38:13;;;;;;;19.20;12.23;;;14.50;99.90;;;;;;5033023;28;20014;-69
2021/12/24 14:40:43;;;;;;;20.00;12.02;;;14.50;99.90;;;;;;5032971;28;20083;-69
2021/12/24 14:43:11;;;;;;;20.92;11.18;;;14.50;99.90;;;;;;5016140;28;20056;-73